Time;durP1;ratioP1;P1;durP2;ratioP2;P2;SDS_P1;SDS_P2;PMS_P1;PMS_P2;Temp;Humidity;BMP_temperature;BMP_pressure;BME280_temperature;BME280_humidity;BME280_pressure;Samples;Min_cycle;Max_cycle;Signal;HPM_P1;HPM_P2
2023/12/19 00:00:31;;;;;;;6.20;3.17;;;0.00;99.90;;;;;;2032847;29;20277;-85
2023/12/19 00:01:32;;;;;;;3.83;2.20;;;0.00;99.90;;;;;;2062505;28;20240;-85
2023/12/19 00:02:33;;;;;;;4.05;2.00;;;0.00;99.90;;;;;;2066095;28;20263;-84
2023/12/19 00:03:34;;;;;;;3.40;1.87;;;0.00;99.90;;;;;;2085453;28;20273;-84
2023/12/19 00:04:36;;;;;;;3.07;2.03;;;0.00;99.90;;;;;;2082191;28;20462;-83
2023/12/19 00:05:37;;;;;;;3.00;1.60;;;0.00;99.90;;;;;;2033242;28;20235;-84
2023/12/19 00:06:38;;;;;;;2.75;1.88;;;0.00;99.90;;;;;;2033711;28;20225;-85
2023/12/19 00:07:40;;;;;;;3.40;1.40;;;0.00;99.90;;;;;;2040674;28;20236;-84
2023/12/19 00:08:41;;;;;;;5.38;2.15;;;0.00;99.90;;;;;;2032942;28;20221;-85
2023/12/19 00:09:42;;;;;;;2.43;1.97;;;0.00;99.90;;;;;;2036688;28;20209;-84
2023/12/19 00:10:44;;;;;;;3.40;2.13;;;0.00;99.90;;;;;;2058949;28;20220;-82
2023/12/19 00:11:44;;;;;;;5.38;2.95;;;0.00;99.90;;;;;;2065040;28;20526;-82
2023/12/19 00:12:45;;;;;;;4.37;2.30;;;-0.10;99.90;;;;;;2042925;29;20224;-85
2023/12/19 00:13:46;;;;;;;3.70;2.37;;;-0.20;99.90;;;;;;2038473;29;20275;-85
2023/12/19 00:14:47;;;;;;;4.23;2.50;;;-0.30;99.90;;;;;;2046011;28;20746;-83
2023/12/19 00:15:47;;;;;;;3.87;2.20;;;-0.30;99.90;;;;;;2033748;28;20229;-85
2023/12/19 00:16:48;;;;;;;1.93;1.50;;;-0.20;99.90;;;;;;2030376;28;20594;-85
2023/12/19 00:17:49;;;;;;;1.70;1.47;;;-0.30;99.90;;;;;;2041045;28;20232;-84
2023/12/19 00:18:50;;;;;;;2.08;1.75;;;-0.40;99.90;;;;;;2048219;28;20228;-85
2023/12/19 00:19:51;;;;;;;1.70;1.50;;;-0.30;99.90;;;;;;2038408;29;20679;-83
2023/12/19 00:20:54;;;;;;;2.80;2.10;;;-0.30;99.90;;;;;;2028975;28;20225;-83
2023/12/19 00:21:56;;;;;;;3.90;1.40;;;-0.30;99.90;;;;;;2037075;29;20216;-83
2023/12/19 00:22:57;;;;;;;2.25;1.60;;;-0.20;99.90;;;;;;2042350;29;20216;-85
2023/12/19 00:23:57;;;;;;;1.97;1.30;;;-0.20;99.90;;;;;;2041465;29;20228;-84
2023/12/19 00:24:58;;;;;;;4.70;2.20;;;0.00;99.90;;;;;;2041052;29;20228;-85
2023/12/19 00:25:59;;;;;;;4.27;2.23;;;0.00;99.90;;;;;;2033020;28;20248;-84
2023/12/19 00:27:00;;;;;;;3.37;2.23;;;0.00;99.90;;;;;;2030555;29;20260;-84
2023/12/19 00:28:00;;;;;;;3.40;1.90;;;-0.10;99.90;;;;;;2040694;28;20236;-85
2023/12/19 00:29:01;;;;;;;3.07;2.03;;;-0.20;99.90;;;;;;2048763;28;20251;-83
2023/12/19 00:30:02;;;;;;;4.10;2.27;;;-0.30;99.90;;;;;;2048445;28;20223;-85
2023/12/19 00:31:03;;;;;;;3.13;2.17;;;-0.20;99.90;;;;;;2044009;28;20233;-84
2023/12/19 00:32:04;;;;;;;3.13;2.43;;;-0.40;99.90;;;;;;2041197;28;20203;-84
2023/12/19 00:33:05;;;;;;;2.60;1.80;;;-0.50;99.90;;;;;;2040796;28;20216;-84
2023/12/19 00:34:05;;;;;;;4.07;2.07;;;-0.50;99.90;;;;;;2041408;28;20192;-84
2023/12/19 00:35:08;;;;;;;4.43;2.30;;;-0.50;99.90;;;;;;2038294;28;20185;-84
2023/12/19 00:36:09;;;;;;;1.80;1.65;;;-0.50;99.90;;;;;;2038211;28;20209;-84
2023/12/19 00:37:09;;;;;;;2.40;1.70;;;-0.50;99.90;;;;;;2081666;28;20308;-84
2023/12/19 00:38:10;;;;;;;2.87;2.13;;;-0.50;99.90;;;;;;2073627;28;20257;-85
2023/12/19 00:39:11;;;;;;;3.47;2.27;;;-0.50;99.90;;;;;;2044369;29;20224;-85
2023/12/19 00:40:12;;;;;;;6.93;3.30;;;-0.60;99.90;;;;;;2040665;29;20185;-85
2023/12/19 00:41:14;;;;;;;2.72;1.55;;;-0.40;99.90;;;;;;2040342;28;20188;-84
2023/12/19 00:42:15;;;;;;;2.67;1.55;;;-0.40;99.90;;;;;;2040510;29;20263;-85
2023/12/19 00:43:16;;;;;;;1.73;1.33;;;-0.40;99.90;;;;;;2031310;28;20197;-84
2023/12/19 00:44:16;;;;;;;2.13;1.53;;;-0.50;99.90;;;;;;2038081;29;20619;-84
2023/12/19 00:45:17;;;;;;;2.70;1.50;;;-0.50;99.90;;;;;;2044990;29;20379;-83
2023/12/19 00:46:18;;;;;;;2.53;1.70;;;-0.40;99.90;;;;;;2039878;28;20690;-83
2023/12/19 00:47:18;;;;;;;3.13;1.70;;;-0.40;99.90;;;;;;2046603;28;20196;-84
2023/12/19 00:48:19;;;;;;;3.00;1.90;;;-0.40;99.90;;;;;;2038665;29;20196;-82
2023/12/19 00:49:20;;;;;;;2.33;1.50;;;-0.40;99.90;;;;;;2038633;29;20672;-84
2023/12/19 00:50:21;;;;;;;1.73;1.60;;;-0.40;99.90;;;;;;2044563;28;20188;-83
2023/12/19 00:51:21;;;;;;;2.77;1.60;;;-0.30;99.90;;;;;;2048853;28;20298;-84
2023/12/19 00:52:22;;;;;;;2.70;1.63;;;-0.30;99.90;;;;;;2033930;29;20229;-85
2023/12/19 00:53:23;;;;;;;1.57;1.20;;;-0.20;99.90;;;;;;2029453;28;20236;-85
2023/12/19 00:54:24;;;;;;;2.13;1.70;;;-0.20;99.90;;;;;;2040326;28;20259;-86
2023/12/19 00:55:26;;;;;;;3.70;1.67;;;-0.10;99.90;;;;;;2040865;28;20243;-85
2023/12/19 00:56:27;;;;;;;1.85;1.35;;;-0.20;99.90;;;;;;2044341;28;20696;-86
2023/12/19 00:57:27;;;;;;;1.80;1.30;;;-0.30;99.90;;;;;;2040180;28;20295;-85
2023/12/19 00:58:28;;;;;;;1.70;1.10;;;-0.30;99.90;;;;;;2036190;28;20240;-85
2023/12/19 00:59:29;;;;;;;1.73;1.30;;;-0.20;99.90;;;;;;2040120;28;20236;-85
2023/12/19 01:00:29;;;;;;;2.60;1.63;;;-0.30;99.90;;;;;;2032341;29;20247;-83
2023/12/19 01:01:30;;;;;;;1.30;1.10;;;-0.20;99.90;;;;;;2037893;28;20230;-85
2023/12/19 01:02:33;;;;;;;2.47;1.60;;;-0.20;99.90;;;;;;2034776;29;20663;-86
2023/12/19 01:03:35;;;;;;;2.65;1.73;;;-0.10;99.90;;;;;;2025149;28;20237;-85
2023/12/19 01:04:36;;;;;;;1.75;1.45;;;-0.10;99.90;;;;;;2040183;29;20228;-83
2023/12/19 01:05:37;;;;;;;2.72;1.85;;;-0.10;99.90;;;;;;2047564;28;20607;-85
2023/12/19 01:06:38;;;;;;;1.70;1.40;;;-0.10;99.90;;;;;;2052824;28;20288;-85
2023/12/19 01:07:38;;;;;;;2.63;1.43;;;-0.20;99.90;;;;;;2031688;29;21038;-85
2023/12/19 01:08:39;;;;;;;2.63;1.80;;;-0.20;99.90;;;;;;2024366;28;20238;-85
2023/12/19 01:09:40;;;;;;;1.80;1.47;;;-0.30;99.90;;;;;;2022171;28;20238;-84
2023/12/19 01:10:41;;;;;;;1.63;1.33;;;-0.40;99.90;;;;;;2027042;28;20667;-85
2023/12/19 01:11:41;;;;;;;2.80;1.30;;;-0.30;99.90;;;;;;2032179;29;20232;-84
2023/12/19 01:12:43;;;;;;;1.83;1.00;;;-0.50;99.90;;;;;;2039947;29;20569;-85
2023/12/19 01:13:43;;;;;;;1.50;1.40;;;-0.40;99.90;;;;;;2031442;29;20308;-86
2023/12/19 01:14:45;;;;;;;1.67;1.30;;;-0.40;99.90;;;;;;2030297;29;20225;-84
2023/12/19 01:15:45;;;;;;;1.38;1.08;;;-0.40;99.90;;;;;;2039395;28;20576;-85
2023/12/19 01:16:46;;;;;;;2.07;1.03;;;-0.40;99.90;;;;;;2052202;28;20265;-83
2023/12/19 01:17:47;;;;;;;1.75;1.23;;;-0.30;99.90;;;;;;2030845;28;20263;-85
2023/12/19 01:18:48;;;;;;;1.97;1.47;;;-0.30;99.90;;;;;;2029834;28;20225;-85
2023/12/19 01:19:49;;;;;;;3.23;1.50;;;-0.30;99.90;;;;;;2039222;29;20235;-85
2023/12/19 01:20:50;;;;;;;2.13;1.50;;;-0.30;99.90;;;;;;2033581;28;20232;-85
2023/12/19 01:21:51;;;;;;;1.75;1.00;;;-0.30;99.90;;;;;;2029764;28;20257;-85
2023/12/19 01:22:51;;;;;;;1.33;1.10;;;-0.30;99.90;;;;;;2046055;28;20228;-85
2023/12/19 01:23:52;;;;;;;1.63;1.27;;;-0.40;99.90;;;;;;2052788;28;20277;-85
2023/12/19 01:24:53;;;;;;;1.37;1.00;;;-0.50;99.90;;;;;;2036225;29;20733;-86
2023/12/19 01:25:53;;;;;;;3.87;1.53;;;-0.60;99.90;;;;;;2031852;28;20296;-84
2023/12/19 01:26:54;;;;;;;1.30;0.97;;;-0.60;99.90;;;;;;2027409;28;20245;-85
2023/12/19 01:27:55;;;;;;;1.47;1.20;;;-0.60;99.90;;;;;;2024198;28;20603;-85
2023/12/19 01:28:56;;;;;;;1.42;0.98;;;-0.50;99.90;;;;;;2041766;29;20220;-84
2023/12/19 01:29:57;;;;;;;3.03;1.00;;;-0.50;99.90;;;;;;2040621;28;20255;-85
2023/12/19 01:30:58;;;;;;;1.17;1.07;;;-0.50;99.90;;;;;;2032498;29;20241;-85
2023/12/19 01:31:58;;;;;;;1.00;0.87;;;-0.50;99.90;;;;;;2039728;29;20224;-84
2023/12/19 01:32:59;;;;;;;1.43;0.90;;;-0.50;99.90;;;;;;2048619;28;20739;-83
2023/12/19 01:33:59;;;;;;;2.43;1.10;;;-0.50;99.90;;;;;;2039838;28;20266;-85
2023/12/19 01:35:00;;;;;;;1.00;0.80;;;-0.40;99.90;;;;;;2032159;28;20263;-85
2023/12/19 01:36:02;;;;;;;1.03;0.70;;;-0.40;99.90;;;;;;2040027;29;20275;-85
2023/12/19 01:37:03;;;;;;;1.20;0.90;;;-0.40;99.90;;;;;;2038396;28;20241;-86
2023/12/19 01:38:04;;;;;;;1.47;0.70;;;-0.40;99.90;;;;;;2039714;28;20220;-85
2023/12/19 01:39:05;;;;;;;1.33;0.60;;;-0.30;99.90;;;;;;2040003;28;20675;-85
2023/12/19 01:40:08;;;;;;;0.77;0.60;;;-0.30;99.90;;;;;;2048724;28;20199;-83
2023/12/19 01:41:09;;;;;;;4.22;0.80;;;-0.30;99.90;;;;;;2043201;28;20200;-84
2023/12/19 01:42:09;;;;;;;1.07;0.80;;;-0.40;99.90;;;;;;2041835;29;20224;-85
2023/12/19 01:43:20;;;;;;;0.80;0.80;;;-0.40;99.90;;;;;;2039859;29;20262;-83
2023/12/19 01:44:21;;;;;;;1.92;1.20;;;-0.40;99.90;;;;;;2034295;29;20752;-85
2023/12/19 01:45:25;;;;;;;0.90;0.90;;;-0.40;99.90;;;;;;2036301;29;20245;-83
2023/12/19 01:46:26;;;;;;;1.20;1.00;;;-0.50;99.90;;;;;;2039913;29;20248;-85
2023/12/19 01:47:27;;;;;;;1.92;1.23;;;-0.50;99.90;;;;;;2047736;28;20246;-85
2023/12/19 01:48:28;;;;;;;2.70;1.40;;;-0.60;99.90;;;;;;2031484;28;20228;-85
2023/12/19 01:49:29;;;;;;;2.10;1.52;;;-0.60;99.90;;;;;;2025367;28;20248;-84
2023/12/19 01:50:30;;;;;;;2.87;1.60;;;-0.70;99.90;;;;;;2020884;28;20249;-83
2023/12/19 01:51:31;;;;;;;2.25;1.40;;;-0.60;99.90;;;;;;2024131;28;20324;-83
2023/12/19 01:52:31;;;;;;;1.80;1.33;;;-0.60;99.90;;;;;;2039690;28;20220;-84
2023/12/19 01:53:34;;;;;;;1.50;1.00;;;-0.70;99.90;;;;;;2028605;29;20237;-84
2023/12/19 01:54:37;;;;;;;1.85;1.33;;;-0.80;99.90;;;;;;2022498;28;20660;-83
2023/12/19 01:55:40;;;;;;;2.58;1.40;;;-0.80;99.90;;;;;;2021796;28;20238;-82
2023/12/19 01:56:41;;;;;;;2.17;1.50;;;-0.70;99.90;;;;;;2036329;29;20237;-84
2023/12/19 01:57:43;;;;;;;2.03;1.30;;;-0.80;99.90;;;;;;2031347;28;20236;-83
2023/12/19 01:58:44;;;;;;;1.70;1.33;;;-0.80;99.90;;;;;;2022561;29;20229;-84
2023/12/19 01:59:47;;;;;;;1.80;1.38;;;-0.90;99.90;;;;;;2024381;29;20685;-84
2023/12/19 02:00:49;;;;;;;2.30;1.45;;;-0.90;99.90;;;;;;2032468;28;20247;-84
2023/12/19 02:01:50;;;;;;;1.27;0.95;;;-0.90;99.90;;;;;;2023472;28;20245;-84
2023/12/19 02:02:52;;;;;;;1.10;1.00;;;-1.00;99.90;;;;;;2028545;28;20902;-85
2023/12/19 02:03:53;;;;;;;1.50;1.08;;;-1.00;99.90;;;;;;2027299;29;20239;-82
2023/12/19 02:04:57;;;;;;;2.58;1.20;;;-0.90;99.90;;;;;;2025044;28;20603;-84
2023/12/19 02:05:59;;;;;;;1.73;1.20;;;-0.90;99.90;;;;;;2049870;28;20224;-84
2023/12/19 02:06:59;;;;;;;1.15;0.77;;;-0.80;99.90;;;;;;2046568;28;20234;-84
2023/12/19 02:08:00;;;;;;;1.30;1.20;;;-0.90;99.90;;;;;;2049113;28;20229;-84
2023/12/19 02:09:02;;;;;;;1.37;1.10;;;-0.90;99.90;;;;;;2050635;28;20251;-83
2023/12/19 02:10:03;;;;;;;2.05;0.90;;;-0.90;99.90;;;;;;2051682;28;20247;-84
2023/12/19 02:11:04;;;;;;;0.70;0.70;;;-0.90;99.90;;;;;;2051336;28;20239;-80
2023/12/19 02:12:05;;;;;;;1.50;1.17;;;-0.80;99.90;;;;;;2045414;29;20192;-82
2023/12/19 02:13:06;;;;;;;0.98;0.73;;;-0.90;99.90;;;;;;2050908;28;20204;-83
2023/12/19 02:14:07;;;;;;;2.13;0.97;;;-0.90;99.90;;;;;;2040491;28;20597;-81
2023/12/19 02:15:08;;;;;;;1.20;1.00;;;-0.90;99.90;;;;;;2043562;28;20906;-83
2023/12/19 02:16:09;;;;;;;0.77;0.77;;;-0.90;99.90;;;;;;2036999;28;20212;-82
2023/12/19 02:17:14;;;;;;;1.37;0.80;;;-0.90;99.90;;;;;;2038031;28;20184;-85
2023/12/19 02:18:17;;;;;;;1.20;1.13;;;-1.00;99.90;;;;;;2072924;28;20182;-85
2023/12/19 02:19:18;;;;;;;1.52;1.30;;;-0.90;99.90;;;;;;2053738;28;20215;-85
2023/12/19 02:20:19;;;;;;;1.90;1.10;;;-0.80;99.90;;;;;;2039382;29;20192;-85
2023/12/19 02:21:20;;;;;;;2.25;1.30;;;-0.80;99.90;;;;;;2038808;28;20216;-84
2023/12/19 02:22:21;;;;;;;1.70;1.37;;;-0.80;99.90;;;;;;2038067;28;20184;-85
2023/12/19 02:23:21;;;;;;;1.80;1.40;;;-0.70;99.90;;;;;;2037607;28;20192;-84
2023/12/19 02:24:24;;;;;;;1.53;1.13;;;-0.70;99.90;;;;;;2036785;28;20680;-85
2023/12/19 02:25:24;;;;;;;1.25;1.10;;;-0.70;99.90;;;;;;2039079;29;20236;-85
2023/12/19 02:26:26;;;;;;;1.10;1.00;;;-0.70;99.90;;;;;;2039361;28;20243;-85
2023/12/19 02:27:27;;;;;;;2.15;1.67;;;-0.80;99.90;;;;;;2032346;28;20239;-85
2023/12/19 02:28:28;;;;;;;2.00;1.07;;;-0.80;99.90;;;;;;2039265;28;21077;-85
2023/12/19 02:29:29;;;;;;;2.47;1.50;;;-0.80;99.90;;;;;;2043660;28;20258;-85
2023/12/19 02:30:30;;;;;;;1.63;0.83;;;-0.70;99.90;;;;;;2039679;28;20236;-82
2023/12/19 02:31:30;;;;;;;2.33;1.10;;;-0.70;99.90;;;;;;2038988;29;20244;-83
2023/12/19 02:32:37;;;;;;;1.07;0.93;;;-0.70;99.90;;;;;;2038991;29;20603;-84
2023/12/19 02:33:37;;;;;;;1.27;0.90;;;-0.80;99.90;;;;;;2044821;28;20280;-84
2023/12/19 02:34:38;;;;;;;1.73;1.30;;;-0.70;99.90;;;;;;2038968;28;20346;-84
2023/12/19 02:35:39;;;;;;;1.97;1.53;;;-0.70;99.90;;;;;;2042002;28;20762;-85
2023/12/19 02:36:39;;;;;;;1.30;1.20;;;-0.70;99.90;;;;;;2034023;29;20295;-82
2023/12/19 02:37:41;;;;;;;1.50;0.90;;;-0.70;99.90;;;;;;2034180;28;20237;-84
2023/12/19 02:38:42;;;;;;;2.47;1.52;;;-0.80;99.90;;;;;;2023100;28;20321;-85
2023/12/19 02:39:43;;;;;;;1.60;1.10;;;-0.70;99.90;;;;;;2037354;28;20299;-84
2023/12/19 02:40:44;;;;;;;1.93;1.30;;;-0.80;99.90;;;;;;2044613;28;20674;-84
2023/12/19 02:41:44;;;;;;;1.55;1.30;;;-0.90;99.90;;;;;;2038855;28;20705;-84
2023/12/19 02:42:45;;;;;;;2.47;1.53;;;-0.90;99.90;;;;;;2022317;28;20230;-82
2023/12/19 02:43:46;;;;;;;1.17;1.00;;;-0.80;99.90;;;;;;2029107;29;20324;-84
2023/12/19 02:44:46;;;;;;;2.30;1.37;;;-0.80;99.90;;;;;;2039000;29;20241;-81
2023/12/19 02:45:47;;;;;;;1.10;1.00;;;-0.80;99.90;;;;;;2050932;28;20246;-83
2023/12/19 02:46:48;;;;;;;1.50;1.40;;;-0.80;99.90;;;;;;2035154;29;20245;-81
2023/12/19 02:47:48;;;;;;;1.33;1.23;;;-0.80;99.90;;;;;;2031420;28;20261;-82
2023/12/19 02:48:49;;;;;;;1.80;1.07;;;-0.80;99.90;;;;;;2033207;28;20690;-84
2023/12/19 02:49:50;;;;;;;2.60;1.70;;;-0.80;99.90;;;;;;2045423;29;20234;-84
2023/12/19 02:50:51;;;;;;;2.23;1.33;;;-0.80;99.90;;;;;;2060948;28;20231;-85
2023/12/19 02:51:52;;;;;;;4.37;1.50;;;-0.80;99.90;;;;;;2081270;28;20224;-83
2023/12/19 02:52:53;;;;;;;2.33;1.20;;;-0.70;99.90;;;;;;2032796;28;20244;-85
2023/12/19 02:53:55;;;;;;;1.83;1.10;;;-0.80;99.90;;;;;;2031084;28;20278;-85
2023/12/19 02:54:56;;;;;;;2.40;1.10;;;-0.70;99.90;;;;;;2031709;28;20352;-85
2023/12/19 02:55:57;;;;;;;1.10;1.00;;;-0.70;99.90;;;;;;2051895;28;20228;-85
2023/12/19 02:56:57;;;;;;;1.40;0.90;;;-0.80;99.90;;;;;;2032489;28;20312;-83
2023/12/19 02:57:58;;;;;;;1.10;1.00;;;-0.80;99.90;;;;;;2035424;28;20265;-82
2023/12/19 02:59:01;;;;;;;1.80;0.90;;;-0.70;99.90;;;;;;2035918;28;20677;-85
2023/12/19 03:00:02;;;;;;;2.10;1.20;;;-0.80;99.90;;;;;;2045622;28;20246;-84
2023/12/19 03:01:06;;;;;;;1.48;0.98;;;-0.80;99.90;;;;;;2042110;28;20220;-83
2023/12/19 03:02:07;;;;;;;2.72;1.50;;;-0.90;99.90;;;;;;2030982;28;20193;-83
2023/12/19 03:03:08;;;;;;;2.93;1.10;;;-0.90;99.90;;;;;;2044383;28;20227;-84
2023/12/19 03:04:08;;;;;;;2.27;1.27;;;-0.90;99.90;;;;;;2038563;29;20567;-85
2023/12/19 03:05:09;;;;;;;1.13;0.80;;;-0.90;99.90;;;;;;2042832;28;20194;-84
2023/12/19 03:06:13;;;;;;;1.60;1.20;;;-0.90;99.90;;;;;;2028966;28;20714;-83
2023/12/19 03:07:13;;;;;;;0.80;0.70;;;-1.00;99.90;;;;;;2039483;28;20185;-84
2023/12/19 03:08:14;;;;;;;1.50;1.10;;;-0.90;99.90;;;;;;2042180;28;20204;-82
2023/12/19 03:09:15;;;;;;;1.20;1.00;;;-0.80;99.90;;;;;;2036037;29;20278;-83
2023/12/19 03:10:16;;;;;;;2.27;0.90;;;-0.90;99.90;;;;;;2028985;28;20291;-82
2023/12/19 03:11:16;;;;;;;2.37;1.20;;;-0.80;99.90;;;;;;2027149;28;20240;-82
2023/12/19 03:12:17;;;;;;;1.83;1.00;;;-0.80;99.90;;;;;;2038490;28;20194;-83
2023/12/19 03:13:18;;;;;;;1.37;1.23;;;-0.80;99.90;;;;;;2035506;29;20192;-82
2023/12/19 03:14:19;;;;;;;1.33;1.23;;;-0.80;99.90;;;;;;2030680;28;20308;-84
2023/12/19 03:15:19;;;;;;;1.60;1.10;;;-0.70;99.90;;;;;;2030297;29;20205;-84
2023/12/19 03:16:20;;;;;;;1.50;1.07;;;-0.80;99.90;;;;;;2041980;28;20686;-84
2023/12/19 03:17:21;;;;;;;1.53;1.00;;;-0.80;99.90;;;;;;2038190;28;20213;-83
2023/12/19 03:18:25;;;;;;;2.90;0.80;;;-0.70;99.90;;;;;;2030461;28;20233;-84
2023/12/19 03:19:25;;;;;;;1.30;1.17;;;-0.70;99.90;;;;;;2047106;28;20801;-83
2023/12/19 03:20:26;;;;;;;1.20;1.10;;;-0.70;99.90;;;;;;2036400;28;20236;-84
2023/12/19 03:21:27;;;;;;;1.03;0.83;;;-0.70;99.90;;;;;;2037271;28;20221;-81
2023/12/19 03:22:27;;;;;;;1.93;1.10;;;-0.80;99.90;;;;;;2039116;28;20238;-81
2023/12/19 03:23:28;;;;;;;1.17;0.80;;;-0.80;99.90;;;;;;2037488;28;20272;-81
2023/12/19 03:24:30;;;;;;;2.07;1.40;;;-0.80;99.90;;;;;;2040159;29;20236;-82
2023/12/19 03:25:30;;;;;;;1.85;1.33;;;-0.80;99.90;;;;;;2027691;28;20592;-82
2023/12/19 03:26:31;;;;;;;1.83;1.37;;;-0.80;99.90;;;;;;2028222;28;20270;-82
2023/12/19 03:27:32;;;;;;;0.93;0.60;;;-0.90;99.90;;;;;;2029435;28;20292;-82
2023/12/19 03:28:35;;;;;;;1.85;1.23;;;-0.90;99.90;;;;;;2029376;29;20335;-83
2023/12/19 03:29:35;;;;;;;3.05;1.65;;;-0.90;99.90;;;;;;2034027;29;20759;-83
2023/12/19 03:30:36;;;;;;;1.50;1.40;;;-0.90;99.90;;;;;;2039210;29;20243;-82
2023/12/19 03:31:37;;;;;;;1.93;1.40;;;-1.00;99.90;;;;;;2030327;28;20236;-83
2023/12/19 03:32:37;;;;;;;2.33;1.47;;;-1.00;99.90;;;;;;2028167;28;20229;-83
2023/12/19 03:33:39;;;;;;;2.47;1.70;;;-1.00;99.90;;;;;;2041034;29;20236;-83
2023/12/19 03:34:40;;;;;;;3.85;1.85;;;-1.00;99.90;;;;;;2029368;29;20237;-83
2023/12/19 03:35:41;;;;;;;4.07;1.80;;;-0.90;99.90;;;;;;2032992;28;20239;-83
2023/12/19 03:36:41;;;;;;;2.67;1.63;;;-0.90;99.90;;;;;;2031894;28;20229;-84
2023/12/19 03:37:45;;;;;;;4.33;2.03;;;-0.90;99.90;;;;;;2031336;29;20304;-82
2023/12/19 03:38:46;;;;;;;3.22;2.20;;;-0.80;99.90;;;;;;2036188;29;20220;-84
2023/12/19 03:39:46;;;;;;;3.57;2.13;;;-0.80;99.90;;;;;;2028931;29;20225;-84
2023/12/19 03:40:47;;;;;;;3.57;1.83;;;-0.80;99.90;;;;;;2038806;29;20277;-84
2023/12/19 03:41:49;;;;;;;3.10;1.80;;;-0.80;99.90;;;;;;2036522;28;20341;-84
2023/12/19 03:42:50;;;;;;;3.85;2.13;;;-0.90;99.90;;;;;;2036673;28;20743;-83
2023/12/19 03:43:51;;;;;;;3.00;1.90;;;-0.80;99.90;;;;;;2035211;29;20252;-83
2023/12/19 03:44:52;;;;;;;5.83;2.47;;;-0.80;99.90;;;;;;2034430;28;20221;-84
2023/12/19 03:45:56;;;;;;;2.43;1.30;;;-0.80;99.90;;;;;;2047255;28;20838;-84
2023/12/19 03:46:56;;;;;;;3.85;1.80;;;-0.80;99.90;;;;;;2029575;29;20327;-84
2023/12/19 03:47:57;;;;;;;4.90;1.70;;;-0.80;99.90;;;;;;2033037;29;20482;-84
2023/12/19 03:48:58;;;;;;;4.00;1.77;;;-0.80;99.90;;;;;;2034022;28;20225;-84
2023/12/19 03:49:58;;;;;;;3.17;1.93;;;-0.90;99.90;;;;;;2027575;28;20233;-83
2023/12/19 03:50:59;;;;;;;3.03;1.73;;;-0.80;99.90;;;;;;2046946;28;20757;-82
2023/12/19 03:52:00;;;;;;;3.63;1.70;;;-0.90;99.90;;;;;;2035029;28;20672;-84
2023/12/19 03:53:01;;;;;;;3.00;1.20;;;-0.90;99.90;;;;;;2031735;28;20304;-84
2023/12/19 03:54:02;;;;;;;2.50;1.83;;;-0.80;99.90;;;;;;2032349;28;20724;-84
2023/12/19 03:55:03;;;;;;;2.33;1.73;;;-0.80;99.90;;;;;;2042385;29;20304;-83
2023/12/19 03:56:05;;;;;;;2.47;1.40;;;-0.80;99.90;;;;;;2031798;28;20232;-84
2023/12/19 03:57:06;;;;;;;2.83;2.00;;;-0.80;99.90;;;;;;2040540;28;20184;-84
2023/12/19 03:58:06;;;;;;;2.03;1.10;;;-0.80;99.90;;;;;;2043714;28;20666;-82
2023/12/19 03:59:10;;;;;;;2.43;1.77;;;-0.80;99.90;;;;;;2045833;28;20176;-84
2023/12/19 04:00:12;;;;;;;2.33;1.60;;;-0.90;99.90;;;;;;2033979;28;20185;-83
2023/12/19 04:01:13;;;;;;;3.15;1.58;;;-0.80;99.90;;;;;;2030152;29;20265;-84
2023/12/19 04:02:14;;;;;;;3.17;1.70;;;-0.80;99.90;;;;;;2035455;29;20986;-84
2023/12/19 04:03:15;;;;;;;4.27;1.70;;;-0.80;99.90;;;;;;2031066;29;20193;-82
2023/12/19 04:04:17;;;;;;;3.03;1.37;;;-0.90;99.90;;;;;;2028829;28;20181;-84
2023/12/19 04:05:17;;;;;;;4.68;2.17;;;-1.00;99.90;;;;;;2032888;28;20435;-83
2023/12/19 04:06:18;;;;;;;4.43;2.30;;;-1.10;99.90;;;;;;2029427;28;20240;-84
2023/12/19 04:07:19;;;;;;;2.03;1.83;;;-1.10;99.90;;;;;;2040227;28;20201;-83
2023/12/19 04:08:20;;;;;;;4.40;2.90;;;-1.10;99.90;;;;;;2039457;29;20231;-82
2023/12/19 04:09:21;;;;;;;2.95;1.80;;;-1.00;99.90;;;;;;2035465;28;20201;-83
2023/12/19 04:10:22;;;;;;;3.55;2.33;;;-1.00;99.90;;;;;;2039029;29;20232;-83
2023/12/19 04:11:23;;;;;;;2.03;1.77;;;-0.90;99.90;;;;;;2042977;29;20251;-82
2023/12/19 04:12:23;;;;;;;2.83;2.17;;;-1.00;99.90;;;;;;2030483;29;20718;-84
2023/12/19 04:13:24;;;;;;;2.87;1.90;;;-1.00;99.90;;;;;;2022259;29;20249;-84
2023/12/19 04:14:25;;;;;;;3.17;1.80;;;-0.90;99.90;;;;;;2031503;29;20306;-82
2023/12/19 04:15:26;;;;;;;1.87;1.73;;;-1.00;99.90;;;;;;2039732;28;20248;-84
2023/12/19 04:16:26;;;;;;;2.50;1.60;;;-1.10;99.90;;;;;;2045809;28;20235;-84
2023/12/19 04:17:27;;;;;;;3.73;1.93;;;-1.10;99.90;;;;;;2036759;28;20951;-83
2023/12/19 04:18:28;;;;;;;6.93;2.30;;;-1.10;99.90;;;;;;2035935;28;20243;-83
2023/12/19 04:19:28;;;;;;;5.27;1.70;;;-1.00;99.90;;;;;;2039558;29;20248;-84
2023/12/19 04:20:29;;;;;;;3.60;2.00;;;-1.00;99.90;;;;;;2040247;29;20697;-83
2023/12/19 04:21:30;;;;;;;3.00;2.07;;;-1.00;99.90;;;;;;2041888;28;20311;-81
2023/12/19 04:22:31;;;;;;;3.73;1.93;;;-1.00;99.90;;;;;;2038592;28;20237;-83
2023/12/19 04:23:32;;;;;;;5.10;1.73;;;-1.10;99.90;;;;;;2037160;28;20240;-84
2023/12/19 04:24:33;;;;;;;14.47;2.10;;;-1.00;99.90;;;;;;2047443;28;20258;-83
2023/12/19 04:25:33;;;;;;;3.13;1.53;;;-1.00;99.90;;;;;;2048209;28;20327;-84
2023/12/19 04:26:34;;;;;;;3.57;2.33;;;-0.90;99.90;;;;;;2031535;28;20268;-83
2023/12/19 04:27:36;;;;;;;2.80;1.83;;;-1.00;99.90;;;;;;2031386;28;20236;-83
2023/12/19 04:28:38;;;;;;;4.65;2.00;;;-1.00;99.90;;;;;;2039436;28;20244;-82
2023/12/19 04:29:39;;;;;;;3.72;2.03;;;-1.00;99.90;;;;;;2036980;28;20244;-84
2023/12/19 04:30:40;;;;;;;2.80;1.20;;;-1.00;99.90;;;;;;2039830;28;20228;-83
2023/12/19 04:31:44;;;;;;;3.43;1.40;;;-1.00;99.90;;;;;;2036094;29;20236;-83
2023/12/19 04:32:45;;;;;;;3.95;1.40;;;-1.00;99.90;;;;;;2032975;28;20287;-83
2023/12/19 04:33:45;;;;;;;3.30;1.70;;;-1.00;99.90;;;;;;2045600;28;20729;-83
2023/12/19 04:34:46;;;;;;;3.70;1.60;;;-0.90;99.90;;;;;;2039976;28;20216;-84
2023/12/19 04:35:47;;;;;;;2.57;1.50;;;-0.90;99.90;;;;;;2040350;28;20224;-85
2023/12/19 04:36:47;;;;;;;1.30;1.20;;;-1.00;99.90;;;;;;2030240;28;20292;-84
2023/12/19 04:37:48;;;;;;;1.77;1.43;;;-1.00;99.90;;;;;;2031265;29;20223;-84
2023/12/19 04:38:49;;;;;;;2.50;1.57;;;-0.90;99.90;;;;;;2030892;28;20233;-84
2023/12/19 04:39:49;;;;;;;2.10;1.60;;;-0.90;99.90;;;;;;2030401;28;20260;-84
2023/12/19 04:40:50;;;;;;;1.60;1.20;;;-0.80;99.90;;;;;;2035157;28;20247;-83
2023/12/19 04:41:51;;;;;;;2.57;1.20;;;-0.80;99.90;;;;;;2035146;28;20231;-83
2023/12/19 04:42:51;;;;;;;2.00;1.60;;;-0.80;99.90;;;;;;2029199;28;20740;-82
2023/12/19 04:43:52;;;;;;;2.03;1.37;;;-0.90;99.90;;;;;;2039380;28;20229;-81
2023/12/19 04:44:53;;;;;;;1.70;1.23;;;-0.90;99.90;;;;;;2032908;28;20302;-85
2023/12/19 04:45:54;;;;;;;3.50;1.27;;;-0.90;99.90;;;;;;2037526;28;20220;-84
2023/12/19 04:46:54;;;;;;;3.40;2.00;;;-0.90;99.90;;;;;;2039589;29;20299;-84
2023/12/19 04:47:55;;;;;;;1.83;1.07;;;-0.90;99.90;;;;;;2030345;28;20243;-84
2023/12/19 04:48:56;;;;;;;0.93;0.90;;;-0.90;99.90;;;;;;2032295;29;20237;-85
2023/12/19 04:49:56;;;;;;;2.50;1.57;;;-0.90;99.90;;;;;;2040730;28;20220;-84
2023/12/19 04:50:57;;;;;;;2.30;1.00;;;-1.00;99.90;;;;;;2024807;28;20476;-85
2023/12/19 04:51:58;;;;;;;2.30;1.05;;;-0.90;99.90;;;;;;2035878;28;20308;-84
2023/12/19 04:52:59;;;;;;;2.70;1.13;;;-0.80;99.90;;;;;;2034096;28;20349;-85
2023/12/19 04:54:00;;;;;;;1.57;1.20;;;-0.80;99.90;;;;;;2039541;29;20231;-83
2023/12/19 04:55:01;;;;;;;1.20;1.10;;;-0.80;99.90;;;;;;2031749;28;20302;-85
2023/12/19 04:56:02;;;;;;;1.93;1.20;;;-0.80;99.90;;;;;;2024018;28;20229;-84
2023/12/19 04:57:03;;;;;;;1.57;1.17;;;-0.80;99.90;;;;;;2029758;29;20280;-84
2023/12/19 04:58:04;;;;;;;2.08;1.15;;;-0.80;99.90;;;;;;2032092;29;20665;-83
2023/12/19 04:59:04;;;;;;;2.23;1.17;;;-0.80;99.90;;;;;;2039837;28;20195;-85
2023/12/19 05:00:06;;;;;;;1.50;1.37;;;-0.80;99.90;;;;;;2039580;28;20200;-84
2023/12/19 05:01:07;;;;;;;1.50;1.17;;;-0.80;99.90;;;;;;2031965;29;20348;-85
2023/12/19 05:02:08;;;;;;;2.70;1.63;;;-0.90;99.90;;;;;;2031426;28;20188;-85
2023/12/19 05:03:08;;;;;;;3.50;2.07;;;-0.90;99.90;;;;;;2028726;28;20276;-85
2023/12/19 05:04:09;;;;;;;2.20;1.03;;;-0.90;99.90;;;;;;2029616;28;20291;-85
2023/12/19 05:05:10;;;;;;;1.50;1.37;;;-0.90;99.90;;;;;;2037610;29;20185;-85
2023/12/19 05:06:17;;;;;;;2.90;1.43;;;-0.90;99.90;;;;;;2047035;28;20214;-85
2023/12/19 05:07:17;;;;;;;1.33;1.10;;;-0.80;99.90;;;;;;2050558;28;20187;-85
2023/12/19 05:08:18;;;;;;;0.70;0.70;;;-0.80;99.90;;;;;;2055296;28;20593;-83
2023/12/19 05:09:20;;;;;;;2.70;1.43;;;-0.90;99.90;;;;;;2054209;28;20201;-84
2023/12/19 05:10:20;;;;;;;1.10;1.00;;;-0.80;99.90;;;;;;2042355;28;20189;-83
2023/12/19 05:11:21;;;;;;;2.40;1.23;;;-0.80;99.90;;;;;;2046002;28;20299;-83
2023/12/19 05:12:23;;;;;;;1.03;0.97;;;-0.80;99.90;;;;;;2033526;28;20686;-82
2023/12/19 05:13:26;;;;;;;1.42;1.15;;;-0.80;99.90;;;;;;2048416;29;20243;-82
2023/12/19 05:14:26;;;;;;;3.53;1.20;;;-0.90;99.90;;;;;;2048080;28;20227;-83
2023/12/19 05:15:27;;;;;;;2.27;1.40;;;-1.00;99.90;;;;;;2030075;28;20327;-83
2023/12/19 05:16:28;;;;;;;2.77;1.60;;;-1.00;99.90;;;;;;2028885;29;20400;-84
2023/12/19 05:17:29;;;;;;;1.33;1.20;;;-0.90;99.90;;;;;;2028492;29;20238;-83
2023/12/19 05:18:29;;;;;;;3.30;1.90;;;-0.90;99.90;;;;;;2020703;28;20843;-83